createdAt,value
2022-12-15T00:02:10.656Z,75.77
2022-12-15T00:04:56.253Z,75.76
2022-12-15T00:07:41.936Z,75.57
2022-12-15T00:10:30.339Z,75.80
2022-12-15T00:13:15.839Z,75.52
2022-12-15T00:16:01.151Z,75.87
2022-12-15T00:18:46.727Z,75.73
2022-12-15T00:21:32.149Z,75.81
2022-12-15T00:24:17.580Z,76.03
2022-12-15T00:27:02.858Z,76.11
2022-12-15T00:29:48.184Z,75.89
2022-12-15T00:32:33.398Z,75.65
2022-12-15T00:35:19.117Z,75.93
2022-12-15T00:38:04.433Z,75.68
2022-12-15T00:40:32.825Z,75.55
2022-12-15T00:42:59.537Z,75.44
2022-12-15T00:45:45.979Z,75.65
2022-12-15T00:48:12.514Z,75.52
2022-12-15T00:51:03.021Z,75.39
2022-12-15T00:53:48.102Z,75.41
2022-12-15T00:56:33.237Z,75.99
2022-12-15T00:59:18.839Z,76.14
2022-12-15T01:02:04.417Z,75.97
2022-12-15T01:04:49.751Z,75.69
2022-12-15T01:07:35.274Z,75.84
2022-12-15T01:10:21.199Z,75.59
2022-12-15T01:13:06.312Z,75.70
2022-12-15T01:15:54.915Z,75.55
2022-12-15T01:18:40.866Z,75.37
2022-12-15T01:21:08.445Z,75.60
2022-12-15T01:23:35.257Z,75.64
2022-12-15T01:26:02.226Z,75.66
2022-12-15T01:28:28.992Z,75.57
2022-12-15T01:30:55.556Z,75.91
2022-12-15T01:33:22.461Z,76.04
2022-12-15T01:35:59.412Z,76.12
2022-12-15T01:38:26.482Z,76.32
2022-12-15T01:41:04.590Z,75.81
2022-12-15T01:43:35.218Z,76.03
2022-12-15T01:46:05.213Z,75.69
2022-12-15T01:48:44.534Z,75.54
2022-12-15T01:51:15.310Z,75.55
2022-12-15T01:54:04.350Z,75.53
2022-12-15T01:56:37.343Z,75.60
2022-12-15T01:59:04.673Z,75.90
2022-12-15T02:01:31.213Z,75.76
2022-12-15T02:03:58.326Z,75.86
2022-12-15T02:06:28.457Z,75.82
2022-12-15T02:08:57.000Z,76.06
2022-12-15T02:11:36.109Z,76.12
2022-12-15T02:14:05.615Z,75.88
2022-12-15T02:17:04.782Z,75.81
2022-12-15T02:20:00.393Z,75.70
2022-12-15T02:22:40.127Z,75.82
2022-12-15T02:25:17.551Z,75.70
2022-12-15T02:27:48.938Z,75.74
2022-12-15T02:30:19.268Z,75.41
2022-12-15T02:33:00.880Z,75.61
2022-12-15T02:35:41.581Z,75.62
2022-12-15T02:38:09.374Z,75.45
2022-12-15T02:40:39.650Z,75.44
2022-12-15T02:43:07.121Z,75.48
2022-12-15T02:45:54.663Z,75.54
2022-12-15T02:48:37.410Z,75.55
2022-12-15T02:51:29.094Z,75.89
2022-12-15T02:54:04.522Z,75.32
2022-12-15T02:56:37.203Z,75.32
2022-12-15T02:59:20.427Z,75.25
2022-12-15T03:01:54.502Z,75.44
2022-12-15T03:04:21.277Z,75.16
2022-12-15T03:07:00.854Z,75.21
2022-12-15T03:09:32.874Z,75.27
2022-12-15T03:12:00.403Z,75.18
2022-12-15T03:14:29.885Z,75.12
2022-12-15T03:16:56.451Z,75.31
2022-12-15T03:19:23.828Z,75.43
2022-12-15T03:21:50.845Z,75.65
2022-12-15T03:24:17.283Z,75.57
2022-12-15T03:26:44.218Z,75.28
2022-12-15T03:29:10.867Z,75.56
2022-12-15T03:31:37.387Z,75.73
2022-12-15T03:34:04.294Z,75.47
2022-12-15T03:36:30.999Z,75.55
2022-12-15T03:38:57.422Z,75.35
2022-12-15T03:41:24.034Z,75.47
2022-12-15T03:43:59.287Z,75.35
2022-12-15T03:46:26.362Z,75.17
2022-12-15T03:48:53.253Z,75.15
2022-12-15T03:51:20.445Z,75.00
2022-12-15T03:53:48.705Z,75.11
2022-12-15T03:56:16.551Z,75.23
2022-12-15T03:58:43.290Z,75.44
2022-12-15T04:01:22.560Z,75.38
2022-12-15T04:03:49.467Z,75.49
2022-12-15T04:06:16.079Z,75.37
2022-12-15T04:08:42.587Z,75.54
2022-12-15T04:11:09.171Z,75.47
2022-12-15T04:13:35.815Z,75.56
2022-12-15T04:16:03.108Z,75.29
2022-12-15T04:18:29.937Z,75.40
2022-12-15T04:20:56.965Z,75.26
2022-12-15T04:23:26.564Z,75.40
2022-12-15T04:26:11.782Z,75.52
2022-12-15T04:28:57.323Z,75.38
2022-12-15T04:31:43.712Z,75.29
2022-12-15T04:34:43.505Z,75.10
2022-12-15T04:37:30.244Z,75.49
2022-12-15T04:40:16.274Z,75.62
2022-12-15T04:42:45.525Z,75.66
2022-12-15T04:45:32.373Z,75.65
2022-12-15T04:48:18.060Z,75.65
2022-12-15T04:51:03.923Z,75.73
2022-12-15T04:53:48.960Z,75.76
2022-12-15T04:56:35.604Z,75.66
2022-12-15T04:59:20.721Z,75.47
2022-12-15T05:02:06.167Z,75.52
2022-12-15T05:04:51.715Z,75.52
2022-12-15T05:07:37.484Z,75.53
2022-12-15T05:10:23.229Z,75.45
2022-12-15T05:13:08.802Z,75.34
2022-12-15T05:15:53.771Z,75.64
2022-12-15T05:18:39.110Z,75.65
2022-12-15T05:21:25.095Z,75.67
2022-12-15T05:24:10.855Z,75.71
2022-12-15T05:26:56.416Z,75.83
2022-12-15T05:29:41.884Z,75.74
2022-12-15T05:32:08.415Z,75.79
2022-12-15T05:34:35.764Z,75.59
2022-12-15T05:37:03.715Z,75.56
2022-12-15T05:39:30.233Z,75.56
2022-12-15T05:41:57.209Z,75.49
2022-12-15T05:44:26.433Z,75.49
2022-12-15T05:46:53.147Z,75.50
2022-12-15T05:49:20.138Z,75.44
2022-12-15T05:51:47.627Z,75.62
2022-12-15T05:54:18.459Z,75.64
2022-12-15T05:56:45.792Z,75.62
2022-12-15T05:59:13.457Z,75.66
2022-12-15T06:01:40.184Z,75.76
2022-12-15T06:04:06.991Z,75.88
2022-12-15T06:06:33.703Z,75.53
2022-12-15T06:09:00.235Z,75.72
2022-12-15T06:11:27.005Z,75.47
2022-12-15T06:13:54.684Z,75.52
2022-12-15T06:16:22.956Z,75.37
2022-12-15T06:18:53.595Z,75.34
2022-12-15T06:21:26.733Z,75.29
2022-12-15T06:23:54.998Z,75.32
2022-12-15T06:26:27.223Z,75.25
2022-12-15T06:28:56.693Z,75.39
2022-12-15T06:31:24.865Z,75.43
2022-12-15T06:33:57.500Z,75.51
2022-12-15T06:36:28.818Z,75.58
2022-12-15T06:38:58.348Z,75.64
2022-12-15T06:41:24.882Z,75.71
2022-12-15T06:43:53.662Z,75.62
2022-12-15T06:46:20.253Z,75.71
2022-12-15T06:48:47.286Z,75.50
2022-12-15T06:51:17.307Z,75.45
2022-12-15T06:53:53.207Z,75.32
2022-12-15T06:56:33.013Z,75.16
2022-12-15T06:59:01.367Z,75.34
2022-12-15T07:01:28.619Z,75.47
2022-12-15T07:03:55.932Z,75.37
2022-12-15T07:06:22.527Z,75.32
2022-12-15T07:08:53.757Z,75.30
2022-12-15T07:11:21.424Z,75.25
2022-12-15T07:13:49.772Z,75.51
2022-12-15T07:16:16.647Z,75.30
2022-12-15T07:18:43.140Z,75.36
2022-12-15T07:21:09.744Z,75.30
2022-12-15T07:23:53.256Z,75.33
2022-12-15T07:26:21.294Z,75.02
2022-12-15T07:28:47.873Z,74.75
2022-12-15T07:31:14.810Z,74.52
2022-12-15T07:33:41.419Z,74.28
2022-12-15T07:36:08.231Z,74.25
2022-12-15T07:38:34.873Z,74.14
2022-12-15T07:41:06.284Z,74.09
2022-12-15T07:43:33.909Z,74.18
2022-12-15T07:46:01.039Z,74.17
2022-12-15T07:48:28.568Z,74.33
2022-12-15T07:51:05.196Z,73.99
2022-12-15T07:53:35.584Z,74.12
2022-12-15T07:56:08.375Z,74.04
2022-12-15T07:58:35.743Z,73.96
2022-12-15T08:01:05.121Z,74.14
2022-12-15T08:03:32.680Z,74.10
2022-12-15T08:06:06.482Z,74.19
2022-12-15T08:28:22.995Z,73.37
2022-12-15T08:31:26.318Z,73.33
2022-12-15T08:47:06.631Z,73.37
2022-12-15T08:53:31.848Z,73.29
2022-12-15T08:56:26.223Z,73.31
2022-12-15T09:05:27.826Z,73.41
2022-12-15T09:08:21.203Z,73.33
2022-12-15T09:11:16.279Z,73.04
2022-12-15T09:27:22.668Z,72.25
2022-12-15T09:45:06.065Z,71.98
2022-12-15T11:30:33.412Z,71.82
2022-12-15T11:33:00.465Z,71.85
2022-12-15T11:35:28.472Z,71.94
2022-12-15T11:38:23.431Z,71.85
2022-12-15T11:44:18.003Z,71.83
2022-12-15T11:46:56.278Z,71.54
2022-12-15T11:49:41.509Z,71.69
2022-12-15T11:52:23.324Z,71.50
2022-12-15T11:54:54.934Z,71.34
2022-12-15T11:57:30.948Z,71.44
2022-12-15T12:00:09.013Z,71.40
2022-12-15T12:02:44.366Z,71.29
2022-12-15T12:05:30.292Z,71.42
2022-12-15T12:08:18.291Z,71.47
2022-12-15T12:11:18.616Z,71.40
2022-12-15T12:13:50.327Z,71.71
2022-12-15T12:17:08.134Z,71.61
2022-12-15T12:19:41.795Z,71.70
2022-12-15T12:22:33.951Z,71.76
2022-12-15T12:25:18.892Z,71.57
2022-12-15T12:27:52.520Z,71.56
2022-12-15T12:30:25.387Z,71.71
2022-12-15T12:33:05.101Z,71.51
2022-12-15T12:35:37.839Z,71.86
2022-12-15T12:38:06.907Z,71.92
2022-12-15T12:40:42.449Z,71.85
2022-12-15T12:43:14.232Z,71.45
2022-12-15T12:45:53.383Z,71.43
2022-12-15T12:48:39.615Z,71.58
2022-12-15T12:51:21.807Z,71.58
2022-12-15T12:53:48.946Z,71.48
2022-12-15T12:56:45.403Z,71.36
2022-12-15T12:59:30.543Z,71.39
2022-12-15T13:02:30.328Z,71.32
2022-12-15T13:04:56.969Z,71.00
2022-12-15T13:07:35.742Z,71.22
2022-12-15T13:10:08.304Z,70.91
2022-12-15T13:12:52.383Z,71.02
2022-12-15T13:15:28.888Z,71.06
2022-12-15T13:18:22.493Z,70.88
2022-12-15T13:20:58.024Z,70.96
2022-12-15T13:23:34.130Z,71.44
2022-12-15T13:26:01.008Z,71.23
2022-12-15T13:28:39.566Z,70.93
2022-12-15T13:31:18.455Z,70.86
2022-12-15T13:33:55.521Z,70.92
2022-12-15T13:36:37.784Z,71.12
2022-12-15T13:39:13.531Z,71.15
2022-12-15T13:42:07.530Z,71.30
2022-12-15T13:44:35.018Z,70.76
2022-12-15T13:47:25.938Z,70.91
2022-12-15T13:50:04.164Z,70.89
2022-12-15T13:55:39.240Z,70.65
2022-12-15T13:58:09.064Z,70.44
2022-12-15T14:00:37.924Z,70.31
2022-12-15T14:03:08.761Z,70.62
2022-12-15T14:05:36.104Z,70.49
2022-12-15T14:08:08.446Z,70.29
2022-12-15T14:10:51.457Z,70.48
2022-12-15T14:13:19.826Z,70.55
2022-12-15T14:15:56.600Z,70.35
2022-12-15T14:18:31.927Z,70.42
2022-12-15T14:21:00.257Z,70.51
2022-12-15T14:23:29.772Z,70.45
2022-12-15T14:26:08.335Z,70.48
2022-12-15T14:28:37.463Z,70.60
2022-12-15T14:31:13.956Z,70.50
2022-12-15T14:33:43.476Z,70.74
2022-12-15T14:36:11.708Z,70.59
2022-12-15T14:38:48.252Z,70.83
2022-12-15T14:41:24.464Z,70.70
2022-12-15T14:44:31.346Z,70.90
2022-12-15T14:46:38.514Z,70.71
2022-12-15T14:49:07.153Z,70.88
2022-12-15T14:51:41.591Z,70.95
2022-12-15T14:54:37.865Z,70.84
2022-12-15T14:57:26.662Z,71.02
2022-12-15T14:59:53.559Z,70.89
2022-12-15T15:02:26.142Z,70.81
2022-12-15T15:03:10.458Z,71.87
2022-12-15T15:05:10.484Z,70.72
2022-12-15T15:07:37.534Z,70.49
2022-12-15T15:10:20.833Z,70.41
2022-12-15T15:12:48.333Z,70.57
2022-12-15T15:15:20.045Z,70.50
2022-12-15T15:17:59.731Z,70.46
2022-12-15T15:20:30.976Z,70.46
2022-12-15T15:23:13.103Z,70.54
2022-12-15T15:25:56.056Z,70.64
2022-12-15T15:28:24.520Z,70.75
2022-12-15T15:30:57.231Z,70.52
2022-12-15T15:33:24.635Z,70.71
2022-12-15T15:35:53.872Z,70.96
2022-12-15T15:38:31.725Z,70.89
2022-12-15T15:41:01.120Z,70.99
2022-12-15T15:43:28.319Z,70.99
2022-12-15T15:46:06.365Z,70.87
2022-12-15T15:48:36.399Z,70.95
2022-12-15T15:51:04.813Z,71.21
2022-12-15T15:53:32.959Z,71.16
2022-12-15T15:55:59.713Z,71.00
2022-12-15T15:58:26.192Z,71.25
2022-12-15T16:00:53.149Z,71.17
2022-12-15T16:03:20.495Z,70.93
2022-12-15T16:05:47.231Z,71.28
2022-12-15T16:08:17.094Z,70.96
2022-12-15T16:10:46.750Z,70.99
2022-12-15T16:13:17.544Z,71.07
2022-12-15T16:15:48.128Z,71.05
2022-12-15T16:18:14.857Z,70.96
2022-12-15T16:20:43.038Z,71.00
2022-12-15T16:23:18.441Z,71.06
2022-12-15T16:25:50.873Z,70.98
2022-12-15T16:28:20.391Z,70.95
2022-12-15T16:30:47.274Z,71.32
2022-12-15T16:33:14.262Z,71.32
2022-12-15T16:35:42.317Z,71.09
2022-12-15T16:38:29.984Z,71.75
2022-12-15T16:40:58.468Z,71.25
2022-12-15T16:43:28.943Z,71.66
2022-12-15T16:46:00.844Z,71.91
2022-12-15T16:48:27.324Z,71.54
2022-12-15T16:50:56.109Z,71.82
2022-12-15T16:53:28.162Z,72.06
2022-12-15T16:55:56.439Z,71.86
2022-12-15T16:58:24.630Z,71.65
2022-12-15T17:00:51.327Z,71.66
2022-12-15T17:03:19.532Z,71.89
2022-12-15T17:05:50.146Z,71.92
2022-12-15T17:08:19.937Z,71.56
2022-12-15T17:10:47.943Z,71.65
2022-12-15T17:13:23.804Z,71.78
2022-12-15T17:15:50.421Z,71.84
2022-12-15T17:18:16.863Z,72.18
2022-12-15T17:20:43.765Z,72.33
2022-12-15T17:23:17.022Z,72.05
2022-12-15T17:26:19.595Z,72.29
2022-12-15T17:28:37.304Z,72.23
2022-12-15T17:31:03.956Z,72.41
2022-12-15T17:33:34.843Z,72.49
2022-12-15T17:36:14.937Z,72.32
2022-12-15T17:38:41.338Z,72.42
2022-12-15T17:41:28.852Z,72.09
2022-12-15T17:44:24.086Z,72.10
2022-12-15T17:46:44.922Z,72.07
2022-12-15T17:49:11.634Z,71.99
2022-12-15T17:51:38.116Z,71.81
2022-12-15T17:54:04.894Z,71.88
2022-12-15T17:56:31.400Z,72.03
2022-12-15T17:58:57.743Z,72.38
2022-12-15T18:01:24.383Z,72.28
2022-12-15T18:03:52.029Z,72.43
2022-12-15T18:06:18.632Z,72.59
2022-12-15T18:08:45.223Z,72.39
2022-12-15T18:11:16.133Z,72.69
2022-12-15T18:13:42.907Z,72.63
2022-12-15T18:16:09.827Z,72.88
2022-12-15T18:18:36.222Z,72.83
2022-12-15T18:21:12.832Z,72.89
2022-12-15T18:23:39.720Z,72.94
2022-12-15T18:26:06.564Z,73.12
2022-12-15T18:28:34.730Z,73.18
2022-12-15T18:31:20.837Z,72.96
2022-12-15T18:33:47.435Z,72.58
2022-12-15T18:36:15.575Z,72.45
2022-12-15T18:38:42.805Z,72.55
2022-12-15T18:41:12.972Z,72.66
2022-12-15T18:43:40.553Z,72.63
2022-12-15T18:46:19.604Z,72.50
2022-12-15T18:48:46.152Z,72.54
2022-12-15T18:51:18.420Z,72.69
2022-12-15T18:53:47.662Z,72.69
2022-12-15T18:56:17.594Z,72.57
2022-12-15T18:58:44.093Z,72.69
2022-12-15T19:01:10.647Z,72.77
2022-12-15T19:03:40.550Z,72.59
2022-12-15T19:06:26.230Z,72.92
2022-12-15T19:08:52.962Z,73.24
2022-12-15T19:11:30.489Z,72.92
2022-12-15T19:13:58.842Z,72.78
2022-12-15T19:16:25.488Z,72.99
2022-12-15T19:19:16.973Z,72.81
2022-12-15T19:21:43.909Z,72.92
2022-12-15T19:24:13.501Z,72.71
2022-12-15T19:26:40.496Z,72.81
2022-12-15T19:29:22.184Z,73.13
2022-12-15T19:31:49.200Z,72.85
2022-12-15T19:34:15.907Z,73.10
2022-12-15T19:36:42.429Z,73.33
2022-12-15T19:39:18.385Z,72.91
2022-12-15T19:41:45.168Z,73.51
2022-12-15T19:44:14.957Z,73.41
2022-12-15T19:46:42.673Z,73.23
2022-12-15T19:49:09.937Z,73.98
2022-12-15T19:51:36.920Z,73.32
2022-12-15T19:54:03.556Z,73.44
2022-12-15T19:56:30.571Z,74.07
2022-12-15T19:58:57.163Z,73.40
2022-12-15T20:01:23.870Z,73.34
2022-12-15T20:03:52.243Z,73.52
2022-12-15T20:06:25.527Z,73.31
2022-12-15T20:08:55.473Z,73.41
2022-12-15T20:11:27.140Z,73.32
2022-12-15T20:13:54.778Z,73.56
2022-12-15T20:16:21.807Z,73.89
2022-12-15T20:18:51.710Z,73.67
2022-12-15T20:21:22.571Z,73.78
2022-12-15T20:23:54.179Z,73.46
2022-12-15T20:26:23.971Z,73.85
2022-12-15T20:28:52.494Z,74.14
2022-12-15T20:31:22.697Z,73.72
2022-12-15T20:33:50.053Z,74.16
2022-12-15T20:36:18.414Z,74.46
2022-12-15T20:38:46.303Z,74.03
2022-12-15T20:41:18.407Z,73.96
2022-12-15T20:43:45.978Z,73.60
2022-12-15T20:46:17.281Z,73.83
2022-12-15T20:48:44.401Z,73.77
2022-12-15T20:51:22.338Z,73.59
2022-12-15T20:53:50.563Z,73.78
2022-12-15T20:56:20.233Z,73.73
2022-12-15T20:58:46.884Z,73.67
2022-12-15T21:01:20.283Z,73.99
2022-12-15T21:03:47.143Z,73.68
2022-12-15T21:06:14.233Z,74.33
2022-12-15T21:08:43.540Z,74.18
2022-12-15T21:11:19.164Z,74.42
2022-12-15T21:13:48.046Z,74.21
2022-12-15T21:16:19.937Z,74.14
2022-12-15T21:21:36.854Z,74.05
2022-12-15T21:24:22.859Z,74.07
2022-12-15T21:26:50.326Z,73.77
2022-12-15T21:29:22.389Z,73.95
2022-12-15T21:31:48.878Z,74.05
2022-12-15T21:34:15.529Z,73.98
2022-12-15T21:36:44.409Z,73.79
2022-12-15T21:39:18.437Z,73.88
2022-12-15T21:41:45.038Z,74.28
2022-12-15T21:44:30.515Z,73.90
2022-12-15T21:46:57.283Z,74.34
2022-12-15T21:49:24.898Z,74.40
2022-12-15T21:51:57.548Z,74.08
2022-12-15T21:54:31.522Z,74.32
2022-12-15T21:56:59.698Z,74.43
2022-12-15T21:59:28.726Z,74.24
2022-12-15T22:01:55.795Z,74.41
2022-12-15T22:04:29.092Z,74.31
2022-12-15T22:06:55.520Z,74.50
2022-12-15T22:09:22.122Z,74.31
2022-12-15T22:11:50.775Z,73.93
2022-12-15T22:14:33.424Z,74.35
2022-12-15T22:17:01.127Z,74.24
2022-12-15T22:19:27.730Z,74.47
2022-12-15T22:21:54.277Z,74.39
2022-12-15T22:24:21.552Z,74.86
2022-12-15T22:26:48.158Z,74.69
2022-12-15T22:29:17.985Z,74.72
2022-12-15T22:31:44.468Z,75.01
2022-12-15T22:34:16.691Z,75.07
2022-12-15T22:36:43.350Z,74.90
2022-12-15T22:39:10.597Z,74.79
2022-12-15T22:41:40.734Z,74.70
2022-12-15T22:44:17.386Z,74.45
2022-12-15T22:46:44.106Z,74.82
2022-12-15T22:49:16.277Z,74.50
2022-12-15T22:51:42.792Z,74.18
2022-12-15T22:54:20.423Z,74.54
2022-12-15T22:56:49.282Z,74.61
2022-12-15T22:59:32.945Z,74.67
2022-12-15T23:02:01.441Z,74.82
2022-12-15T23:04:29.007Z,74.42
2022-12-15T23:06:55.795Z,74.72
2022-12-15T23:09:22.191Z,74.96
2022-12-15T23:11:48.653Z,74.99
2022-12-15T23:14:17.167Z,75.00
2022-12-15T23:16:44.920Z,74.86
2022-12-15T23:19:23.027Z,74.87
2022-12-15T23:21:50.318Z,74.79
2022-12-15T23:24:17.062Z,74.69
2022-12-15T23:26:43.528Z,74.61
2022-12-15T23:29:09.927Z,74.43
2022-12-15T23:31:36.733Z,74.38
2022-12-15T23:34:03.213Z,74.40
2022-12-15T23:36:29.910Z,74.70
2022-12-15T23:38:59.171Z,74.38
2022-12-15T23:41:26.884Z,74.29
2022-12-15T23:43:54.582Z,74.25
2022-12-15T23:46:21.701Z,74.56
2022-12-15T23:48:48.157Z,74.45
2022-12-15T23:51:17.117Z,74.80
2022-12-15T23:53:45.360Z,74.77
2022-12-15T23:56:17.804Z,74.73
2022-12-15T23:58:45.276Z,74.40
